Time;durP1;ratioP1;P1;durP2;ratioP2;P2;SDS_P1;SDS_P2;PMS_P1;PMS_P2;Temp;Humidity;BMP_temperature;BMP_pressure;BME280_temperature;BME280_humidity;BME280_pressure;Samples;Min_cycle;Max_cycle;Signal;HPM_P1;HPM_P2
2024/04/04 00:00:06;;;;;;;4.57;2.33;;;10.50;99.90;;;;;;5009156;28;20038;-48
2024/04/04 00:02:37;;;;;;;4.30;2.30;;;10.60;99.90;;;;;;5004837;28;20042;-46
2024/04/04 00:05:04;;;;;;;7.07;2.28;;;10.60;99.90;;;;;;5002436;28;20050;-48
2024/04/04 00:07:31;;;;;;;3.97;1.83;;;10.60;99.90;;;;;;4999226;28;20406;-44
2024/04/04 00:09:57;;;;;;;4.88;1.83;;;10.60;99.90;;;;;;5001265;28;20053;-45
2024/04/04 00:12:25;;;;;;;4.72;1.80;;;10.70;99.90;;;;;;5006691;28;20046;-46
2024/04/04 00:14:51;;;;;;;7.05;2.08;;;10.70;99.90;;;;;;4999422;28;20050;-47
2024/04/04 00:17:17;;;;;;;5.55;1.70;;;10.80;99.90;;;;;;5006860;28;20054;-47
2024/04/04 00:19:44;;;;;;;4.00;1.90;;;10.80;99.90;;;;;;5000557;28;20042;-47
2024/04/04 00:22:11;;;;;;;4.10;1.70;;;10.80;99.90;;;;;;5005141;28;20046;-44
2024/04/04 00:24:37;;;;;;;4.28;1.65;;;10.80;99.90;;;;;;5010136;28;20110;-44
2024/04/04 00:27:03;;;;;;;4.25;1.70;;;10.80;99.90;;;;;;4999709;28;20520;-42
2024/04/04 00:29:30;;;;;;;8.07;2.03;;;10.80;99.90;;;;;;5002608;28;20053;-47
2024/04/04 00:31:55;;;;;;;6.55;1.75;;;10.80;99.90;;;;;;5002098;28;20452;-49
2024/04/04 00:34:21;;;;;;;5.30;1.92;;;10.90;99.90;;;;;;5012209;28;20034;-42
2024/04/04 00:36:47;;;;;;;4.32;1.73;;;10.90;99.90;;;;;;5005065;28;20089;-49
2024/04/04 00:39:14;;;;;;;5.90;1.90;;;10.90;99.90;;;;;;5001519;28;20038;-50
2024/04/04 00:41:40;;;;;;;3.45;1.52;;;10.90;99.90;;;;;;5003498;28;20044;-48
2024/04/04 00:44:07;;;;;;;4.35;1.90;;;11.00;99.90;;;;;;5004887;28;20043;-48
2024/04/04 00:46:33;;;;;;;4.53;1.60;;;11.10;99.90;;;;;;5010233;28;20503;-44
2024/04/04 00:49:01;;;;;;;5.70;1.77;;;11.10;99.90;;;;;;4998726;28;20046;-44
2024/04/04 00:51:27;;;;;;;3.70;1.70;;;11.10;99.90;;;;;;5009120;28;20399;-45
2024/04/04 00:53:54;;;;;;;4.13;1.88;;;11.10;99.90;;;;;;5005540;28;20042;-45
2024/04/04 00:56:21;;;;;;;5.00;1.60;;;11.10;99.90;;;;;;5007003;28;20091;-49
2024/04/04 00:58:47;;;;;;;5.55;1.88;;;11.10;99.90;;;;;;5012405;28;20063;-49
2024/04/04 01:01:13;;;;;;;5.40;2.20;;;11.20;99.90;;;;;;5010359;28;20384;-49
2024/04/04 01:03:42;;;;;;;5.97;1.80;;;11.10;99.90;;;;;;5012409;28;20078;-45
2024/04/04 01:06:08;;;;;;;4.13;1.55;;;11.10;99.90;;;;;;5008009;28;20061;-48
2024/04/04 01:08:34;;;;;;;4.38;1.85;;;11.20;99.90;;;;;;5009627;28;20153;-49
2024/04/04 01:11:01;;;;;;;4.97;1.75;;;11.20;99.90;;;;;;5008447;28;20053;-47
2024/04/04 01:13:27;;;;;;;4.35;1.98;;;11.20;99.90;;;;;;4992989;28;20086;-43
2024/04/04 01:15:53;;;;;;;2.53;1.50;;;11.20;99.90;;;;;;5011599;28;20632;-47
2024/04/04 01:18:19;;;;;;;6.07;1.85;;;11.10;99.90;;;;;;5001258;28;20038;-45
2024/04/04 01:20:46;;;;;;;7.20;2.10;;;11.10;99.90;;;;;;5006310;28;20398;-46
2024/04/04 01:23:12;;;;;;;3.90;1.75;;;11.10;99.90;;;;;;5004521;28;20042;-46
2024/04/04 01:25:38;;;;;;;3.55;1.65;;;11.10;99.90;;;;;;5014862;28;20046;-46
2024/04/04 01:28:04;;;;;;;5.38;2.10;;;11.00;99.90;;;;;;5007326;28;20482;-46
2024/04/04 01:30:30;;;;;;;5.95;1.98;;;11.00;99.90;;;;;;5014072;28;20041;-47
2024/04/04 01:32:56;;;;;;;4.53;1.95;;;11.00;99.90;;;;;;4998873;28;20094;-45
2024/04/04 01:35:22;;;;;;;6.03;2.10;;;11.00;99.90;;;;;;5006112;28;20042;-45
2024/04/04 01:37:48;;;;;;;5.28;1.90;;;11.00;99.90;;;;;;5005062;28;20040;-48
2024/04/04 01:40:14;;;;;;;6.57;1.90;;;11.00;99.90;;;;;;4999763;28;20063;-48
2024/04/04 01:42:40;;;;;;;3.95;1.70;;;10.90;99.90;;;;;;5010167;28;20181;-46
2024/04/04 01:45:06;;;;;;;6.20;1.90;;;11.00;99.90;;;;;;5005531;28;20121;-48
2024/04/04 01:47:32;;;;;;;4.53;1.80;;;11.00;99.90;;;;;;5014025;28;20065;-47
2024/04/04 01:49:58;;;;;;;6.20;2.05;;;11.00;99.90;;;;;;5003556;28;20058;-49
2024/04/04 01:52:24;;;;;;;4.43;2.13;;;11.00;99.90;;;;;;5008294;28;20046;-47
2024/04/04 01:54:50;;;;;;;3.75;1.90;;;10.90;99.90;;;;;;5010642;28;20153;-46
2024/04/04 01:57:16;;;;;;;4.70;1.90;;;10.90;99.90;;;;;;5004015;28;20656;-50
2024/04/04 01:59:42;;;;;;;4.65;2.20;;;10.90;99.90;;;;;;5009746;28;20048;-49
2024/04/04 02:02:08;;;;;;;5.78;1.98;;;10.90;99.90;;;;;;5002041;28;20046;-48
2024/04/04 02:04:34;;;;;;;4.82;2.28;;;10.90;99.90;;;;;;5010456;28;20491;-49
2024/04/04 02:07:00;;;;;;;5.25;1.98;;;10.90;99.90;;;;;;4999134;28;20049;-49
2024/04/04 02:09:27;;;;;;;3.83;1.88;;;10.90;99.90;;;;;;5002336;28;20059;-49
2024/04/04 02:11:54;;;;;;;4.88;1.95;;;10.80;99.90;;;;;;5009175;28;20042;-46
2024/04/04 02:14:20;;;;;;;4.20;1.90;;;10.80;99.90;;;;;;5008396;28;20451;-45
2024/04/04 02:16:46;;;;;;;5.53;2.28;;;10.80;99.90;;;;;;5002232;28;20039;-44
2024/04/04 02:19:12;;;;;;;5.43;2.65;;;10.80;99.90;;;;;;4998099;28;20039;-44
2024/04/04 02:21:38;;;;;;;4.78;2.03;;;10.80;99.90;;;;;;5007684;28;20068;-49
2024/04/04 02:24:04;;;;;;;4.88;2.55;;;10.80;99.90;;;;;;5005946;28;20047;-46
2024/04/04 02:26:31;;;;;;;4.45;1.85;;;10.90;99.90;;;;;;5012974;28;20100;-51
2024/04/04 02:28:59;;;;;;;4.13;2.13;;;10.90;99.90;;;;;;5002950;28;20068;-47
2024/04/04 02:31:25;;;;;;;4.28;2.10;;;10.90;99.90;;;;;;5011938;28;20038;-47
2024/04/04 02:33:52;;;;;;;5.57;2.05;;;10.80;99.90;;;;;;5007884;28;20061;-48
2024/04/04 02:36:18;;;;;;;4.07;2.35;;;10.80;99.90;;;;;;4996467;28;20088;-41
2024/04/04 02:38:44;;;;;;;6.45;2.47;;;10.80;99.90;;;;;;5009242;28;20091;-44
2024/04/04 02:41:10;;;;;;;4.03;2.30;;;10.80;99.90;;;;;;5002300;28;20050;-41
2024/04/04 02:43:36;;;;;;;5.82;2.75;;;10.80;99.90;;;;;;5014809;28;20049;-44
2024/04/04 02:46:03;;;;;;;6.45;2.58;;;10.70;99.90;;;;;;4993913;28;20041;-47
2024/04/04 02:48:29;;;;;;;8.23;2.45;;;10.70;99.90;;;;;;5017268;28;20042;-50
2024/04/04 02:50:57;;;;;;;6.35;2.33;;;10.70;99.90;;;;;;5009674;28;20098;-44
2024/04/04 02:53:23;;;;;;;8.80;2.70;;;10.60;99.90;;;;;;5023630;28;20447;-44
2024/04/04 02:55:57;;;;;;;5.15;2.55;;;10.60;99.90;;;;;;5007785;28;20032;-50
2024/04/04 02:58:24;;;;;;;9.60;3.00;;;10.60;99.90;;;;;;5011458;28;20056;-46
2024/04/04 03:00:50;;;;;;;4.60;2.50;;;10.60;99.90;;;;;;5004520;28;20046;-46
2024/04/04 03:03:17;;;;;;;5.47;2.75;;;10.50;99.90;;;;;;5010497;28;20429;-46
2024/04/04 03:05:43;;;;;;;5.97;2.70;;;10.50;99.90;;;;;;5012761;28;20036;-40
2024/04/04 03:08:10;;;;;;;6.68;2.70;;;10.50;99.90;;;;;;5002418;28;20061;-45
2024/04/04 03:10:37;;;;;;;5.22;2.60;;;10.60;99.90;;;;;;5011208;28;20533;-46
2024/04/04 03:13:03;;;;;;;5.00;2.40;;;10.60;99.90;;;;;;5012586;28;20050;-41
2024/04/04 03:15:32;;;;;;;4.18;2.38;;;10.60;99.90;;;;;;5010222;28;20439;-42
2024/04/04 03:17:58;;;;;;;4.35;2.33;;;10.60;99.90;;;;;;5006295;28;20046;-46
2024/04/04 03:20:25;;;;;;;6.30;2.45;;;10.60;99.90;;;;;;5011687;28;20499;-43
2024/04/04 03:22:51;;;;;;;5.90;2.42;;;10.60;99.90;;;;;;5011874;28;20053;-47
2024/04/04 03:25:17;;;;;;;5.55;2.35;;;10.50;99.90;;;;;;5010470;28;20034;-44
2024/04/04 03:27:43;;;;;;;6.72;2.40;;;10.50;99.90;;;;;;5010864;28;20308;-43
2024/04/04 03:30:09;;;;;;;7.03;2.47;;;10.50;99.90;;;;;;5006556;28;20110;-42
2024/04/04 03:32:35;;;;;;;5.63;2.50;;;10.50;99.90;;;;;;5012718;28;20115;-50
2024/04/04 03:35:02;;;;;;;7.30;2.65;;;10.50;99.90;;;;;;4997477;28;20464;-45
2024/04/04 03:37:28;;;;;;;4.68;2.83;;;10.50;99.90;;;;;;5011319;28;20041;-43
2024/04/04 03:39:54;;;;;;;7.18;3.00;;;10.50;99.90;;;;;;5006535;28;20353;-44
2024/04/04 03:42:20;;;;;;;6.22;2.45;;;10.50;99.90;;;;;;5005949;28;20053;-46
2024/04/04 03:44:51;;;;;;;7.50;2.60;;;10.40;99.90;;;;;;5034479;28;20141;-46
2024/04/04 03:47:17;;;;;;;9.18;2.63;;;10.40;99.90;;;;;;4985499;28;20087;-44
2024/04/04 03:49:43;;;;;;;9.15;2.90;;;10.30;99.90;;;;;;5007218;28;20040;-46
2024/04/04 03:52:10;;;;;;;4.30;2.60;;;10.20;99.90;;;;;;5011239;28;20049;-46
2024/04/04 03:54:36;;;;;;;5.28;2.85;;;10.10;99.90;;;;;;5024407;28;20045;-41
2024/04/04 03:57:06;;;;;;;4.20;2.80;;;10.10;99.90;;;;;;5011436;28;20050;-43
2024/04/04 03:59:32;;;;;;;4.38;2.75;;;10.10;99.90;;;;;;5023733;28;20043;-45
2024/04/04 04:01:58;;;;;;;7.35;2.97;;;10.10;99.90;;;;;;5009701;28;20384;-44
2024/04/04 04:04:26;;;;;;;6.65;2.83;;;10.10;99.90;;;;;;5017088;28;20054;-45
2024/04/04 04:06:52;;;;;;;5.75;2.78;;;10.10;99.90;;;;;;5011515;28;20081;-43
2024/04/04 04:09:18;;;;;;;5.35;2.80;;;10.10;99.90;;;;;;5014833;28;20506;-45
2024/04/04 04:11:44;;;;;;;6.35;2.95;;;10.10;99.90;;;;;;5017583;28;20423;-50
2024/04/04 04:14:10;;;;;;;5.80;2.65;;;10.20;99.90;;;;;;5012632;28;20050;-46
2024/04/04 04:16:36;;;;;;;4.97;2.83;;;10.20;99.90;;;;;;5016353;28;20042;-45
2024/04/04 04:19:02;;;;;;;5.78;2.67;;;10.30;99.90;;;;;;5004167;28;20106;-42
2024/04/04 04:21:28;;;;;;;5.40;2.22;;;10.40;99.90;;;;;;5007483;28;20085;-46
2024/04/04 04:23:57;;;;;;;6.03;2.47;;;10.40;99.90;;;;;;5009939;28;20507;-46
2024/04/04 04:26:23;;;;;;;4.70;2.65;;;10.40;99.90;;;;;;5019751;28;20053;-49
2024/04/04 04:28:49;;;;;;;4.70;2.80;;;10.40;99.90;;;;;;5004048;28;20047;-43
2024/04/04 04:31:30;;;;;;;6.60;3.03;;;10.40;99.90;;;;;;4999717;28;20046;-47
2024/04/04 04:33:57;;;;;;;9.63;5.22;;;10.40;99.90;;;;;;5000526;28;20061;-49
2024/04/04 04:36:25;;;;;;;5.93;3.00;;;10.40;99.90;;;;;;4985708;28;20437;-50
2024/04/04 04:38:51;;;;;;;7.45;3.53;;;10.50;99.90;;;;;;4998738;28;20430;-52
2024/04/04 04:41:18;;;;;;;7.60;2.85;;;10.50;99.90;;;;;;4975274;28;20038;-45
2024/04/04 04:43:46;;;;;;;8.20;3.35;;;10.50;99.90;;;;;;5001228;28;20061;-48
2024/04/04 04:46:16;;;;;;;6.30;3.15;;;10.50;99.90;;;;;;4988564;28;20045;-42
2024/04/04 04:48:42;;;;;;;5.88;3.35;;;10.50;99.90;;;;;;4998104;28;20051;-44
2024/04/04 04:51:09;;;;;;;6.25;3.88;;;10.50;99.90;;;;;;5007050;28;20509;-47
2024/04/04 04:53:35;;;;;;;6.95;3.42;;;10.60;99.90;;;;;;5002605;28;20415;-45
2024/04/04 04:56:02;;;;;;;8.40;3.50;;;10.60;99.90;;;;;;4983460;28;20046;-49
2024/04/04 04:58:29;;;;;;;36.38;19.73;;;10.50;99.90;;;;;;5007789;28;20383;-47
2024/04/04 05:00:55;;;;;;;7.70;4.20;;;10.50;99.90;;;;;;5008313;28;20464;-47
2024/04/04 05:03:23;;;;;;;5.97;3.75;;;10.60;99.90;;;;;;4998396;28;20039;-46
2024/04/04 05:05:50;;;;;;;8.27;3.70;;;10.60;99.90;;;;;;5077638;28;20057;-45
2024/04/04 05:08:17;;;;;;;5.65;3.47;;;10.70;99.90;;;;;;4995583;28;20050;-44
2024/04/04 05:10:44;;;;;;;7.72;3.97;;;10.70;99.90;;;;;;5007728;28;20040;-42
2024/04/04 05:13:10;;;;;;;7.25;3.65;;;10.80;99.90;;;;;;4996624;28;20046;-46
2024/04/04 05:15:46;;;;;;;9.32;4.80;;;10.80;99.90;;;;;;5002663;28;20046;-45
2024/04/04 05:18:13;;;;;;;6.28;3.97;;;10.80;99.90;;;;;;5004358;28;20111;-49
2024/04/04 05:20:40;;;;;;;7.97;3.80;;;10.80;99.90;;;;;;5092256;28;20063;-45
2024/04/04 05:23:06;;;;;;;6.80;4.10;;;10.80;99.90;;;;;;5004082;28;20034;-46
2024/04/04 05:25:31;;;;;;;6.60;3.55;;;10.80;99.90;;;;;;5011713;28;20050;-46
2024/04/04 05:27:57;;;;;;;5.75;3.63;;;10.80;99.90;;;;;;5005276;28;20043;-45
2024/04/04 05:30:23;;;;;;;9.48;3.80;;;10.80;99.90;;;;;;4993831;28;20046;-45
2024/04/04 05:32:49;;;;;;;6.00;3.50;;;10.80;99.90;;;;;;4990783;28;20053;-47
2024/04/04 05:35:15;;;;;;;7.35;3.85;;;10.90;99.90;;;;;;5011423;28;20034;-45
2024/04/04 05:37:41;;;;;;;8.77;3.90;;;10.90;99.90;;;;;;4998654;28;20040;-48
2024/04/04 05:40:08;;;;;;;7.85;3.58;;;11.00;99.90;;;;;;4990568;28;20054;-48
2024/04/04 05:42:34;;;;;;;12.00;6.90;;;11.00;99.90;;;;;;4997691;28;20057;-46
2024/04/04 05:45:00;;;;;;;5.70;3.58;;;11.00;99.90;;;;;;4988999;28;20360;-50
2024/04/04 05:47:26;;;;;;;6.13;3.50;;;11.00;99.90;;;;;;4991578;28;20050;-46
2024/04/04 05:49:52;;;;;;;9.30;3.30;;;11.10;99.90;;;;;;5004202;28;20061;-47
2024/04/04 05:52:18;;;;;;;7.80;3.40;;;11.10;99.90;;;;;;5001741;28;20038;-46
2024/04/04 05:54:47;;;;;;;5.25;2.80;;;11.10;99.90;;;;;;5015070;28;20344;-47
2024/04/04 05:57:14;;;;;;;4.85;2.75;;;11.10;99.90;;;;;;5001218;28;20136;-48
2024/04/04 05:59:40;;;;;;;7.68;3.10;;;11.10;99.90;;;;;;5004910;28;20050;-48
2024/04/04 06:02:06;;;;;;;6.90;3.10;;;11.20;99.90;;;;;;4996898;28;20095;-45
2024/04/04 06:04:32;;;;;;;6.35;3.00;;;11.20;99.90;;;;;;5008083;28;20457;-46
2024/04/04 06:06:58;;;;;;;6.40;3.00;;;11.20;99.90;;;;;;5031929;28;20080;-45
2024/04/04 06:09:24;;;;;;;6.22;2.88;;;11.10;99.90;;;;;;5005425;28;20046;-48
2024/04/04 06:11:50;;;;;;;5.43;3.35;;;11.10;99.90;;;;;;5026937;28;20898;-43
2024/04/04 06:14:16;;;;;;;4.78;2.80;;;11.10;99.90;;;;;;4993055;28;20080;-44
2024/04/04 06:16:42;;;;;;;6.22;3.00;;;11.30;99.90;;;;;;5014502;28;20046;-45
2024/04/04 06:19:08;;;;;;;6.43;3.35;;;11.20;99.90;;;;;;5005589;28;20098;-43
2024/04/04 06:21:34;;;;;;;4.70;2.70;;;11.30;99.90;;;;;;5023663;28;20725;-41
2024/04/04 06:24:00;;;;;;;5.15;2.67;;;11.40;99.90;;;;;;5003895;28;20114;-45
2024/04/04 06:26:28;;;;;;;5.53;2.70;;;11.50;99.90;;;;;;5006569;28;20598;-45
2024/04/04 06:28:57;;;;;;;5.18;2.47;;;11.50;99.90;;;;;;5005951;28;20046;-44
2024/04/04 06:31:23;;;;;;;5.38;2.67;;;11.60;99.90;;;;;;5011809;28;20119;-44
2024/04/04 06:33:50;;;;;;;7.32;2.70;;;11.80;99.90;;;;;;5015916;28;20051;-46
2024/04/04 06:36:16;;;;;;;6.68;2.42;;;11.80;99.90;;;;;;5004442;28;20034;-48
2024/04/04 06:38:43;;;;;;;5.75;2.72;;;11.80;99.90;;;;;;5011357;28;20032;-46
2024/04/04 06:41:10;;;;;;;6.50;2.63;;;12.00;99.90;;;;;;5002741;28;20069;-45
2024/04/04 06:43:36;;;;;;;3.70;2.00;;;12.10;99.90;;;;;;5026603;28;20500;-45
2024/04/04 06:46:02;;;;;;;7.30;2.25;;;12.20;99.90;;;;;;5004036;28;20075;-44
2024/04/04 06:48:28;;;;;;;8.23;2.47;;;12.40;99.90;;;;;;5010734;28;20050;-46
2024/04/04 06:50:54;;;;;;;8.38;2.53;;;12.40;99.90;;;;;;5003100;28;20046;-42
2024/04/04 06:53:20;;;;;;;4.93;2.08;;;12.60;99.90;;;;;;5018756;28;20308;-44
2024/04/04 06:55:46;;;;;;;5.20;1.75;;;12.80;99.90;;;;;;5008583;28;20097;-44
2024/04/04 06:58:13;;;;;;;5.85;2.13;;;12.80;99.90;;;;;;5002458;28;20042;-47
2024/04/04 07:00:41;;;;;;;4.20;2.15;;;12.80;99.90;;;;;;4994249;28;20043;-45
2024/04/04 07:03:07;;;;;;;5.05;2.20;;;12.90;99.90;;;;;;5021219;28;20038;-43
2024/04/04 07:05:34;;;;;;;3.47;1.60;;;12.90;99.90;;;;;;5012046;28;20046;-46
2024/04/04 07:08:01;;;;;;;5.57;2.30;;;13.00;99.90;;;;;;5003142;28;20046;-46
2024/04/04 07:10:27;;;;;;;4.15;2.00;;;13.00;99.90;;;;;;5006752;28;20421;-46
2024/04/04 07:12:53;;;;;;;3.83;1.88;;;13.00;99.90;;;;;;5024251;28;20042;-47
2024/04/04 07:15:19;;;;;;;6.60;1.73;;;13.00;99.90;;;;;;4996507;28;20129;-47
2024/04/04 07:17:45;;;;;;;4.95;1.55;;;13.10;99.90;;;;;;4991477;28;20044;-42
2024/04/04 07:20:11;;;;;;;2.78;1.60;;;13.30;99.90;;;;;;5002458;28;20114;-44
2024/04/04 07:22:37;;;;;;;3.78;1.48;;;13.30;99.90;;;;;;5015459;28;20050;-44
2024/04/04 07:25:03;;;;;;;4.03;1.60;;;13.30;99.90;;;;;;5004450;28;20042;-46
2024/04/04 07:27:29;;;;;;;3.83;1.70;;;13.50;99.90;;;;;;5025839;28;20047;-44
2024/04/04 07:29:55;;;;;;;4.50;1.70;;;13.60;99.90;;;;;;5001708;28;20049;-45
2024/04/04 07:32:21;;;;;;;4.90;1.40;;;13.70;99.90;;;;;;5004547;28;20499;-43
2024/04/04 07:34:47;;;;;;;4.07;1.73;;;13.60;99.90;;;;;;5012113;28;20040;-44
2024/04/04 07:37:13;;;;;;;3.65;1.60;;;13.80;99.90;;;;;;4999853;28;20138;-46
2024/04/04 07:39:39;;;;;;;4.85;1.92;;;13.90;99.90;;;;;;5011296;28;20054;-45
2024/04/04 07:42:05;;;;;;;2.95;1.60;;;13.80;99.90;;;;;;5009319;28;20125;-43
2024/04/04 07:44:31;;;;;;;4.38;1.90;;;13.90;99.90;;;;;;5028015;28;20041;-50
2024/04/04 07:46:57;;;;;;;2.80;1.52;;;13.80;99.90;;;;;;5027693;28;20438;-45
2024/04/04 07:49:23;;;;;;;3.53;1.55;;;13.90;99.90;;;;;;5007342;28;20061;-45
2024/04/04 07:51:50;;;;;;;4.05;1.65;;;13.80;99.90;;;;;;5018484;28;20048;-46
2024/04/04 07:54:16;;;;;;;6.25;1.80;;;13.90;99.90;;;;;;5012011;28;20064;-46
2024/04/04 07:56:42;;;;;;;4.50;2.03;;;14.00;99.90;;;;;;5015794;28;20043;-48
2024/04/04 07:59:08;;;;;;;2.90;1.70;;;14.20;99.90;;;;;;5010136;28;20091;-44
2024/04/04 08:01:34;;;;;;;4.85;1.90;;;14.50;99.90;;;;;;5013479;28;20475;-43
2024/04/04 08:04:01;;;;;;;5.18;1.83;;;14.40;99.90;;;;;;5068180;28;20042;-44
2024/04/04 08:06:27;;;;;;;5.07;1.90;;;14.40;99.90;;;;;;5014519;28;20050;-44
2024/04/04 08:08:53;;;;;;;4.05;1.80;;;14.50;99.90;;;;;;5006207;28;20034;-47
2024/04/04 08:11:21;;;;;;;5.40;2.08;;;14.60;99.90;;;;;;5002402;28;20435;-47
2024/04/04 08:13:47;;;;;;;3.05;1.70;;;14.40;99.90;;;;;;5092118;27;20118;-48
2024/04/04 08:16:14;;;;;;;4.03;1.77;;;14.30;99.90;;;;;;5018150;28;20048;-49
2024/04/04 08:18:40;;;;;;;6.10;2.38;;;14.20;99.90;;;;;;5014480;28;20119;-48
2024/04/04 08:21:07;;;;;;;3.38;1.70;;;14.40;99.90;;;;;;4997387;28;20045;-47
2024/04/04 08:23:33;;;;;;;4.22;1.77;;;14.60;99.90;;;;;;5012497;28;20038;-44
2024/04/04 08:26:03;;;;;;;3.35;1.70;;;14.70;99.90;;;;;;5007472;28;20148;-47
2024/04/04 08:28:29;;;;;;;2.85;1.90;;;14.90;99.90;;;;;;5015965;28;20046;-47
2024/04/04 08:30:59;;;;;;;3.63;1.73;;;14.80;99.90;;;;;;5005455;28;20073;-45
2024/04/04 08:33:26;;;;;;;3.78;1.90;;;14.80;99.90;;;;;;5015787;28;20046;-48
2024/04/04 08:35:55;;;;;;;4.72;1.70;;;14.90;99.90;;;;;;5003434;28;20034;-44
2024/04/04 08:38:21;;;;;;;4.35;1.70;;;15.10;99.90;;;;;;5005014;28;20059;-47
2024/04/04 08:40:48;;;;;;;6.88;2.20;;;15.00;99.90;;;;;;5023727;28;20059;-46
2024/04/04 08:43:18;;;;;;;4.50;2.30;;;15.30;99.90;;;;;;5016579;28;20046;-45
2024/04/04 08:45:49;;;;;;;4.53;2.10;;;15.40;99.90;;;;;;5012157;28;20048;-46
2024/04/04 08:48:20;;;;;;;6.55;2.00;;;15.10;99.90;;;;;;5008981;28;20053;-49
2024/04/04 08:50:47;;;;;;;4.40;2.10;;;15.40;99.90;;;;;;5083017;27;20046;-48
2024/04/04 08:53:15;;;;;;;3.90;1.67;;;15.30;99.90;;;;;;5024711;28;20040;-44
2024/04/04 08:55:43;;;;;;;5.50;2.20;;;15.40;99.90;;;;;;5010298;28;20036;-47
2024/04/04 08:58:13;;;;;;;5.75;2.10;;;15.50;99.90;;;;;;5006146;28;20073;-45
2024/04/04 09:00:40;;;;;;;6.32;2.10;;;15.50;99.90;;;;;;5014376;28;20087;-47
2024/04/04 09:03:07;;;;;;;4.57;2.55;;;15.50;99.90;;;;;;5009878;28;20050;-47
2024/04/04 09:05:33;;;;;;;5.47;2.80;;;15.50;99.90;;;;;;5013150;28;20438;-46
2024/04/04 09:08:02;;;;;;;5.63;2.83;;;15.50;99.90;;;;;;5011337;28;20297;-45
2024/04/04 09:10:28;;;;;;;4.55;2.28;;;15.60;99.90;;;;;;5010451;28;20468;-45
2024/04/04 09:13:02;;;;;;;5.97;2.63;;;15.70;99.90;;;;;;5010815;28;20095;-47
2024/04/04 09:15:28;;;;;;;7.72;2.10;;;15.60;99.90;;;;;;5003122;28;20414;-47
2024/04/04 09:18:08;;;;;;;4.63;2.00;;;15.50;99.90;;;;;;5008496;28;20046;-46
2024/04/04 09:20:38;;;;;;;4.32;2.50;;;15.60;99.90;;;;;;5089775;27;20038;-46
2024/04/04 09:23:09;;;;;;;4.55;2.42;;;15.50;99.90;;;;;;5008576;28;20433;-48
2024/04/04 09:25:37;;;;;;;6.70;2.50;;;15.40;99.90;;;;;;5014816;28;20038;-46
2024/04/04 09:28:04;;;;;;;5.05;2.08;;;15.20;99.90;;;;;;4999258;28;20069;-44
2024/04/04 09:30:32;;;;;;;4.32;2.10;;;15.10;99.90;;;;;;5015022;28;20050;-44
2024/04/04 09:32:59;;;;;;;3.92;2.08;;;15.10;99.90;;;;;;5017960;28;20055;-50
2024/04/04 09:35:25;;;;;;;7.47;2.55;;;15.00;99.90;;;;;;5007417;28;20038;-44
2024/04/04 09:37:51;;;;;;;6.07;2.38;;;14.90;99.90;;;;;;5007095;28;20045;-46
2024/04/04 09:40:18;;;;;;;9.48;2.60;;;14.80;99.90;;;;;;4998709;28;20073;-44
2024/04/04 09:42:46;;;;;;;5.20;2.45;;;14.60;99.90;;;;;;5007767;28;20044;-47
2024/04/04 09:45:13;;;;;;;6.47;2.45;;;14.40;99.90;;;;;;5014064;28;20394;-42
2024/04/04 09:47:44;;;;;;;5.25;2.38;;;14.30;99.90;;;;;;5015586;28;20470;-41
2024/04/04 09:50:14;;;;;;;6.68;2.22;;;14.30;99.90;;;;;;4995466;28;20142;-51
2024/04/04 09:52:40;;;;;;;6.80;2.40;;;14.20;99.90;;;;;;5016668;28;20430;-49
2024/04/04 09:55:07;;;;;;;6.82;1.90;;;14.20;99.90;;;;;;5022324;28;20665;-50
2024/04/04 09:57:35;;;;;;;7.55;2.55;;;14.20;99.90;;;;;;5019972;28;20041;-44
2024/04/04 10:00:17;;;;;;;6.30;2.33;;;14.10;99.90;;;;;;5017647;28;20049;-47
2024/04/04 10:02:50;;;;;;;3.65;1.80;;;14.10;99.90;;;;;;5015921;28;20047;-49
2024/04/04 10:05:25;;;;;;;5.65;1.90;;;14.20;99.90;;;;;;5008261;28;20050;-46
2024/04/04 10:07:51;;;;;;;5.70;2.10;;;14.30;99.90;;;;;;5007683;28;20036;-47
2024/04/04 10:10:19;;;;;;;6.57;2.40;;;14.30;99.90;;;;;;5006757;28;20034;-50
2024/04/04 10:12:50;;;;;;;4.72;2.05;;;14.40;99.90;;;;;;5016601;28;20040;-43
2024/04/04 10:15:17;;;;;;;7.63;2.38;;;14.50;99.90;;;;;;5008103;28;20087;-44
2024/04/04 10:17:44;;;;;;;5.88;2.20;;;14.40;99.90;;;;;;5004085;28;20245;-47
2024/04/04 10:20:10;;;;;;;5.90;2.22;;;14.40;99.90;;;;;;4985296;28;20046;-46
2024/04/04 10:22:36;;;;;;;8.15;2.00;;;14.40;99.90;;;;;;5015596;28;20042;-50
2024/04/04 10:25:03;;;;;;;5.57;2.40;;;14.40;99.90;;;;;;5007677;28;20046;-46
2024/04/04 10:27:29;;;;;;;5.50;2.35;;;14.30;99.90;;;;;;5014136;28;20038;-46
2024/04/04 10:29:56;;;;;;;8.32;2.25;;;14.30;99.90;;;;;;5009755;28;20120;-46
2024/04/04 10:32:22;;;;;;;5.68;2.03;;;14.30;99.90;;;;;;5028478;28;20050;-48
2024/04/04 10:34:59;;;;;;;6.50;1.95;;;14.30;99.90;;;;;;5015223;28;20040;-46
2024/04/04 10:37:25;;;;;;;5.68;2.00;;;14.20;99.90;;;;;;5024145;28;20046;-47
2024/04/04 10:39:51;;;;;;;6.40;2.30;;;14.20;99.90;;;;;;5014916;28;20160;-50
2024/04/04 10:42:17;;;;;;;5.47;2.33;;;14.20;99.90;;;;;;5027752;28;20096;-52
2024/04/04 10:44:48;;;;;;;6.82;2.08;;;14.30;99.90;;;;;;5029902;28;20040;-45
2024/04/04 10:47:14;;;;;;;4.97;1.98;;;14.20;99.90;;;;;;5014043;28;20175;-44
2024/04/04 10:49:40;;;;;;;6.90;2.33;;;14.10;99.90;;;;;;5005990;28;20047;-46
2024/04/04 10:52:06;;;;;;;5.25;1.88;;;14.20;99.90;;;;;;5007848;28;20046;-45
2024/04/04 10:54:33;;;;;;;8.63;2.20;;;14.20;99.90;;;;;;5025905;28;20076;-46
2024/04/04 10:57:00;;;;;;;6.20;2.33;;;14.30;99.90;;;;;;5008150;28;20553;-45
2024/04/04 10:59:27;;;;;;;7.25;2.20;;;14.40;99.90;;;;;;5016195;28;20628;-47
2024/04/04 11:01:55;;;;;;;7.63;2.40;;;14.50;99.90;;;;;;5008616;28;20062;-46
2024/04/04 11:04:21;;;;;;;4.15;2.03;;;14.80;99.90;;;;;;5003983;28;20371;-47
2024/04/04 11:06:49;;;;;;;5.22;2.08;;;15.00;99.90;;;;;;5013070;28;20301;-46
2024/04/04 11:09:20;;;;;;;5.60;2.15;;;15.10;99.90;;;;;;5024449;28;20042;-48
2024/04/04 11:11:51;;;;;;;6.15;2.30;;;15.00;99.90;;;;;;5092091;27;20138;-43
2024/04/04 11:14:21;;;;;;;6.60;2.30;;;15.10;99.90;;;;;;5017500;28;20077;-46
2024/04/04 11:16:49;;;;;;;5.85;2.13;;;15.20;99.90;;;;;;5008642;28;20409;-47
2024/04/04 11:19:16;;;;;;;6.70;2.05;;;15.30;99.90;;;;;;5013544;28;20042;-43
2024/04/04 11:21:42;;;;;;;4.05;1.98;;;15.30;99.90;;;;;;5082998;28;20093;-47
2024/04/04 11:24:08;;;;;;;5.35;1.85;;;15.30;99.90;;;;;;5013227;28;20046;-48
2024/04/04 11:26:34;;;;;;;4.10;1.80;;;15.20;99.90;;;;;;5018736;28;20038;-49
2024/04/04 11:29:02;;;;;;;7.95;2.40;;;15.20;99.90;;;;;;5010233;28;20096;-49
2024/04/04 11:31:29;;;;;;;6.15;2.63;;;15.10;99.90;;;;;;5015825;28;20559;-45
2024/04/04 11:33:55;;;;;;;6.60;2.47;;;15.10;99.90;;;;;;5009865;28;20046;-47
2024/04/04 11:36:22;;;;;;;5.38;2.00;;;15.00;99.90;;;;;;5005956;28;20446;-46
2024/04/04 11:38:48;;;;;;;6.15;2.22;;;14.90;99.90;;;;;;5012965;28;20138;-45
2024/04/04 11:41:14;;;;;;;7.38;2.30;;;14.70;99.90;;;;;;5093542;27;20139;-45
2024/04/04 11:43:40;;;;;;;5.70;2.10;;;14.80;99.90;;;;;;5026932;28;20034;-46
2024/04/04 11:46:07;;;;;;;3.97;2.00;;;14.80;99.90;;;;;;5010892;28;20053;-44
2024/04/04 11:48:34;;;;;;;8.90;2.63;;;14.90;99.90;;;;;;5016224;28;20053;-51
2024/04/04 11:51:00;;;;;;;8.10;2.50;;;14.80;99.90;;;;;;5084258;27;20038;-42
2024/04/04 11:53:25;;;;;;;6.88;2.65;;;14.80;99.90;;;;;;4997167;28;20049;-44
2024/04/04 11:55:56;;;;;;;7.28;2.38;;;14.70;99.90;;;;;;5006904;28;20163;-46
2024/04/04 11:58:31;;;;;;;3.75;2.00;;;14.70;99.90;;;;;;5087214;27;20365;-47
2024/04/04 12:00:59;;;;;;;8.15;2.83;;;14.60;99.90;;;;;;5011783;28;20267;-44
2024/04/04 12:03:26;;;;;;;6.22;2.17;;;14.40;99.90;;;;;;5004025;28;20215;-45
2024/04/04 12:05:52;;;;;;;6.35;2.20;;;14.40;99.90;;;;;;5031367;28;20038;-43
2024/04/04 12:08:18;;;;;;;5.70;1.90;;;14.40;99.90;;;;;;4998336;28;20124;-49
2024/04/04 12:10:44;;;;;;;4.82;1.90;;;14.30;99.90;;;;;;5100935;27;20191;-46
2024/04/04 12:13:11;;;;;;;5.95;2.03;;;14.30;99.90;;;;;;5008796;28;20085;-45
2024/04/04 12:15:37;;;;;;;5.22;1.90;;;14.30;99.90;;;;;;5095319;28;20048;-48
2024/04/04 12:20:49;;;;;;;5.53;2.00;;;14.40;99.90;;;;;;5006317;28;20040;-41
2024/04/04 12:23:15;;;;;;;6.80;2.00;;;14.40;99.90;;;;;;5007558;28;20046;-44
2024/04/04 12:25:45;;;;;;;3.63;1.80;;;14.40;99.90;;;;;;5002813;28;20036;-49
2024/04/04 12:28:11;;;;;;;4.20;1.95;;;14.40;99.90;;;;;;5001164;28;20327;-48
2024/04/04 12:30:37;;;;;;;6.15;2.13;;;14.30;99.90;;;;;;5015352;28;20503;-46
2024/04/04 12:33:03;;;;;;;5.65;2.00;;;14.20;99.90;;;;;;5006887;28;20122;-42
2024/04/04 12:35:29;;;;;;;6.80;2.22;;;14.20;99.90;;;;;;5012654;28;20103;-44
2024/04/04 12:37:55;;;;;;;6.28;2.05;;;14.20;99.90;;;;;;5007560;28;20046;-45
2024/04/04 12:40:21;;;;;;;5.53;2.10;;;14.10;99.90;;;;;;5006194;28;20059;-44
2024/04/04 12:42:47;;;;;;;7.82;2.50;;;14.20;99.90;;;;;;5013550;28;20109;-46
2024/04/04 12:45:13;;;;;;;4.05;1.60;;;14.30;99.90;;;;;;5019277;28;20481;-49